sensor_id;sensor_type;location;lat;lon;timestamp;temperature;humidity
7174;DHT22;3628;48.654;8.932;2022-07-10T00:00:14;16.80;99.90
7174;DHT22;3628;48.654;8.932;2022-07-10T00:02:41;16.80;99.90
7174;DHT22;3628;48.654;8.932;2022-07-10T00:05:08;16.70;99.90
7174;DHT22;3628;48.654;8.932;2022-07-10T00:07:34;16.70;99.90
7174;DHT22;3628;48.654;8.932;2022-07-10T00:10:00;16.60;99.90
7174;DHT22;3628;48.654;8.932;2022-07-10T00:12:26;16.50;99.90
7174;DHT22;3628;48.654;8.932;2022-07-10T00:14:52;16.40;99.90
7174;DHT22;3628;48.654;8.932;2022-07-10T00:17:17;16.40;99.90
7174;DHT22;3628;48.654;8.932;2022-07-10T00:19:43;16.30;99.90
7174;DHT22;3628;48.654;8.932;2022-07-10T00:22:09;16.30;99.90
7174;DHT22;3628;48.654;8.932;2022-07-10T00:24:34;16.30;99.90
7174;DHT22;3628;48.654;8.932;2022-07-10T00:27:00;16.30;99.90
7174;DHT22;3628;48.654;8.932;2022-07-10T00:29:26;16.40;99.90
7174;DHT22;3628;48.654;8.932;2022-07-10T00:31:51;16.40;99.90
7174;DHT22;3628;48.654;8.932;2022-07-10T00:34:17;16.40;99.90
7174;DHT22;3628;48.654;8.932;2022-07-10T00:36:43;16.50;99.90
7174;DHT22;3628;48.654;8.932;2022-07-10T00:39:09;16.50;99.90
7174;DHT22;3628;48.654;8.932;2022-07-10T00:41:35;16.60;99.90
7174;DHT22;3628;48.654;8.932;2022-07-10T00:44:03;16.70;99.90
7174;DHT22;3628;48.654;8.932;2022-07-10T00:46:30;16.70;99.90
7174;DHT22;3628;48.654;8.932;2022-07-10T00:48:57;16.80;99.90
7174;DHT22;3628;48.654;8.932;2022-07-10T00:51:29;16.80;99.90
7174;DHT22;3628;48.654;8.932;2022-07-10T00:53:56;16.70;99.90
7174;DHT22;3628;48.654;8.932;2022-07-10T00:56:26;16.70;99.90
7174;DHT22;3628;48.654;8.932;2022-07-10T00:58:52;16.70;99.90
7174;DHT22;3628;48.654;8.932;2022-07-10T01:01:18;16.60;99.90
7174;DHT22;3628;48.654;8.932;2022-07-10T01:03:44;16.60;99.90
7174;DHT22;3628;48.654;8.932;2022-07-10T01:06:14;16.60;99.90
7174;DHT22;3628;48.654;8.932;2022-07-10T01:08:40;16.50;99.90
7174;DHT22;3628;48.654;8.932;2022-07-10T01:11:07;16.50;99.90
7174;DHT22;3628;48.654;8.932;2022-07-10T01:13:33;16.50;99.90
7174;DHT22;3628;48.654;8.932;2022-07-10T01:15:59;16.50;99.90
7174;DHT22;3628;48.654;8.932;2022-07-10T01:18:27;16.40;99.90
7174;DHT22;3628;48.654;8.932;2022-07-10T01:20:54;16.40;99.90
7174;DHT22;3628;48.654;8.932;2022-07-10T01:23:20;16.40;99.90
7174;DHT22;3628;48.654;8.932;2022-07-10T01:25:47;16.50;99.90
7174;DHT22;3628;48.654;8.932;2022-07-10T01:28:13;16.40;99.90
7174;DHT22;3628;48.654;8.932;2022-07-10T01:30:39;16.40;99.90
7174;DHT22;3628;48.654;8.932;2022-07-10T01:33:04;16.50;99.90
7174;DHT22;3628;48.654;8.932;2022-07-10T01:35:30;16.50;99.90
7174;DHT22;3628;48.654;8.932;2022-07-10T01:37:56;16.50;99.90
7174;DHT22;3628;48.654;8.932;2022-07-10T01:40:21;16.50;99.90
7174;DHT22;3628;48.654;8.932;2022-07-10T01:42:47;16.50;99.90
7174;DHT22;3628;48.654;8.932;2022-07-10T01:45:12;16.50;99.90
7174;DHT22;3628;48.654;8.932;2022-07-10T01:47:38;16.50;99.90
7174;DHT22;3628;48.654;8.932;2022-07-10T01:50:04;16.50;99.90
7174;DHT22;3628;48.654;8.932;2022-07-10T01:52:30;16.50;99.90
7174;DHT22;3628;48.654;8.932;2022-07-10T01:54:56;16.50;99.90
7174;DHT22;3628;48.654;8.932;2022-07-10T01:57:21;16.40;99.90
7174;DHT22;3628;48.654;8.932;2022-07-10T01:59:47;16.40;99.90
7174;DHT22;3628;48.654;8.932;2022-07-10T02:02:12;16.30;99.90
7174;DHT22;3628;48.654;8.932;2022-07-10T02:04:38;16.20;99.90
7174;DHT22;3628;48.654;8.932;2022-07-10T02:07:10;16.10;99.90
7174;DHT22;3628;48.654;8.932;2022-07-10T02:09:37;16.00;99.90
7174;DHT22;3628;48.654;8.932;2022-07-10T02:12:11;16.00;99.90
7174;DHT22;3628;48.654;8.932;2022-07-10T02:14:38;16.00;99.90
7174;DHT22;3628;48.654;8.932;2022-07-10T02:17:04;15.90;99.90
7174;DHT22;3628;48.654;8.932;2022-07-10T02:19:30;15.90;99.90
7174;DHT22;3628;48.654;8.932;2022-07-10T02:21:56;15.90;99.90
7174;DHT22;3628;48.654;8.932;2022-07-10T02:24:21;15.80;99.90
7174;DHT22;3628;48.654;8.932;2022-07-10T02:26:48;15.80;99.90
7174;DHT22;3628;48.654;8.932;2022-07-10T02:29:13;15.90;99.90
7174;DHT22;3628;48.654;8.932;2022-07-10T02:31:39;15.90;99.90
7174;DHT22;3628;48.654;8.932;2022-07-10T02:34:11;15.90;99.90
7174;DHT22;3628;48.654;8.932;2022-07-10T02:36:38;15.90;99.90
7174;DHT22;3628;48.654;8.932;2022-07-10T02:39:08;15.90;99.90
7174;DHT22;3628;48.654;8.932;2022-07-10T02:41:34;15.90;99.90
7174;DHT22;3628;48.654;8.932;2022-07-10T02:44:01;15.90;99.90
7174;DHT22;3628;48.654;8.932;2022-07-10T02:46:27;15.90;99.90
7174;DHT22;3628;48.654;8.932;2022-07-10T02:48:52;16.00;99.90
7174;DHT22;3628;48.654;8.932;2022-07-10T02:51:18;15.90;99.90
7174;DHT22;3628;48.654;8.932;2022-07-10T02:53:43;15.90;99.90
7174;DHT22;3628;48.654;8.932;2022-07-10T02:56:09;15.90;99.90
7174;DHT22;3628;48.654;8.932;2022-07-10T02:58:34;15.90;99.90
7174;DHT22;3628;48.654;8.932;2022-07-10T03:01:00;15.90;99.90
7174;DHT22;3628;48.654;8.932;2022-07-10T03:03:26;15.90;99.90
7174;DHT22;3628;48.654;8.932;2022-07-10T03:05:52;15.90;99.90
7174;DHT22;3628;48.654;8.932;2022-07-10T03:08:17;15.80;99.90
7174;DHT22;3628;48.654;8.932;2022-07-10T03:10:43;15.70;99.90
7174;DHT22;3628;48.654;8.932;2022-07-10T03:13:09;15.70;99.90
7174;DHT22;3628;48.654;8.932;2022-07-10T03:15:35;15.60;99.90
7174;DHT22;3628;48.654;8.932;2022-07-10T03:18:01;15.60;99.90
7174;DHT22;3628;48.654;8.932;2022-07-10T03:20:27;15.50;99.90
7174;DHT22;3628;48.654;8.932;2022-07-10T03:22:52;15.40;99.90
7174;DHT22;3628;48.654;8.932;2022-07-10T03:25:18;15.40;99.90
7174;DHT22;3628;48.654;8.932;2022-07-10T03:27:43;15.30;99.90
7174;DHT22;3628;48.654;8.932;2022-07-10T03:30:10;15.30;99.90
7174;DHT22;3628;48.654;8.932;2022-07-10T03:32:36;15.20;99.90
7174;DHT22;3628;48.654;8.932;2022-07-10T03:35:01;15.20;99.90
7174;DHT22;3628;48.654;8.932;2022-07-10T03:37:27;15.20;99.90
7174;DHT22;3628;48.654;8.932;2022-07-10T03:39:53;15.20;99.90
7174;DHT22;3628;48.654;8.932;2022-07-10T03:42:18;15.10;99.90
7174;DHT22;3628;48.654;8.932;2022-07-10T03:44:44;15.10;99.90
7174;DHT22;3628;48.654;8.932;2022-07-10T03:47:09;15.00;99.90
7174;DHT22;3628;48.654;8.932;2022-07-10T03:49:35;15.00;99.90
7174;DHT22;3628;48.654;8.932;2022-07-10T03:52:02;15.00;99.90
7174;DHT22;3628;48.654;8.932;2022-07-10T03:54:29;15.00;99.90
7174;DHT22;3628;48.654;8.932;2022-07-10T03:56:55;15.00;99.90
7174;DHT22;3628;48.654;8.932;2022-07-10T03:59:40;15.00;99.90
7174;DHT22;3628;48.654;8.932;2022-07-10T04:02:06;14.90;99.90
7174;DHT22;3628;48.654;8.932;2022-07-10T04:04:31;14.90;99.90
7174;DHT22;3628;48.654;8.932;2022-07-10T04:06:57;14.90;99.90
7174;DHT22;3628;48.654;8.932;2022-07-10T04:09:23;14.90;99.90
7174;DHT22;3628;48.654;8.932;2022-07-10T04:11:49;14.90;99.90
7174;DHT22;3628;48.654;8.932;2022-07-10T04:14:14;15.00;99.90
7174;DHT22;3628;48.654;8.932;2022-07-10T04:16:40;14.90;99.90
7174;DHT22;3628;48.654;8.932;2022-07-10T04:19:05;15.00;99.90
7174;DHT22;3628;48.654;8.932;2022-07-10T04:21:31;15.00;99.90
7174;DHT22;3628;48.654;8.932;2022-07-10T04:23:56;14.90;99.90
7174;DHT22;3628;48.654;8.932;2022-07-10T04:26:22;15.00;99.90
7174;DHT22;3628;48.654;8.932;2022-07-10T04:28:47;14.90;99.90
7174;DHT22;3628;48.654;8.932;2022-07-10T04:31:13;14.90;99.90
7174;DHT22;3628;48.654;8.932;2022-07-10T04:33:39;15.10;99.90
7174;DHT22;3628;48.654;8.932;2022-07-10T04:36:04;15.10;99.90
7174;DHT22;3628;48.654;8.932;2022-07-10T04:38:30;15.10;99.90
7174;DHT22;3628;48.654;8.932;2022-07-10T04:40:57;15.10;99.90
7174;DHT22;3628;48.654;8.932;2022-07-10T04:43:22;15.20;99.90
7174;DHT22;3628;48.654;8.932;2022-07-10T04:45:48;15.10;99.90
7174;DHT22;3628;48.654;8.932;2022-07-10T04:48:14;15.20;99.90
7174;DHT22;3628;48.654;8.932;2022-07-10T04:50:39;15.20;99.90
7174;DHT22;3628;48.654;8.932;2022-07-10T04:53:05;15.20;99.90
7174;DHT22;3628;48.654;8.932;2022-07-10T04:55:31;15.20;99.90
7174;DHT22;3628;48.654;8.932;2022-07-10T04:57:57;15.20;99.90
7174;DHT22;3628;48.654;8.932;2022-07-10T05:00:23;15.20;99.90
7174;DHT22;3628;48.654;8.932;2022-07-10T05:02:49;15.20;99.90
7174;DHT22;3628;48.654;8.932;2022-07-10T05:05:14;15.20;99.90
7174;DHT22;3628;48.654;8.932;2022-07-10T05:07:40;15.20;99.90
7174;DHT22;3628;48.654;8.932;2022-07-10T05:10:06;15.20;99.90
7174;DHT22;3628;48.654;8.932;2022-07-10T05:12:31;15.10;99.90
7174;DHT22;3628;48.654;8.932;2022-07-10T05:14:57;15.10;99.90
7174;DHT22;3628;48.654;8.932;2022-07-10T05:17:23;15.10;99.90
7174;DHT22;3628;48.654;8.932;2022-07-10T05:19:49;15.10;99.90
7174;DHT22;3628;48.654;8.932;2022-07-10T05:22:17;15.00;99.90
7174;DHT22;3628;48.654;8.932;2022-07-10T05:24:42;15.00;99.90
7174;DHT22;3628;48.654;8.932;2022-07-10T05:27:08;15.00;99.90
7174;DHT22;3628;48.654;8.932;2022-07-10T05:29:33;15.20;99.90
7174;DHT22;3628;48.654;8.932;2022-07-10T05:31:59;15.20;99.90
7174;DHT22;3628;48.654;8.932;2022-07-10T05:34:25;15.10;99.90
7174;DHT22;3628;48.654;8.932;2022-07-10T05:36:50;15.20;99.90
7174;DHT22;3628;48.654;8.932;2022-07-10T05:39:16;15.20;99.90
7174;DHT22;3628;48.654;8.932;2022-07-10T05:41:41;15.30;99.90
7174;DHT22;3628;48.654;8.932;2022-07-10T05:44:07;15.30;99.90
7174;DHT22;3628;48.654;8.932;2022-07-10T05:46:32;15.20;99.90
7174;DHT22;3628;48.654;8.932;2022-07-10T05:48:58;15.30;99.90
7174;DHT22;3628;48.654;8.932;2022-07-10T05:51:24;15.40;99.90
7174;DHT22;3628;48.654;8.932;2022-07-10T05:53:49;15.50;99.90
7174;DHT22;3628;48.654;8.932;2022-07-10T05:56:15;15.40;99.90
7174;DHT22;3628;48.654;8.932;2022-07-10T05:58:41;15.40;99.90
7174;DHT22;3628;48.654;8.932;2022-07-10T06:01:06;15.50;99.90
7174;DHT22;3628;48.654;8.932;2022-07-10T06:03:32;15.60;99.90
7174;DHT22;3628;48.654;8.932;2022-07-10T06:05:58;15.60;99.90
7174;DHT22;3628;48.654;8.932;2022-07-10T06:08:24;15.70;99.90
7174;DHT22;3628;48.654;8.932;2022-07-10T06:10:50;15.70;99.90
7174;DHT22;3628;48.654;8.932;2022-07-10T06:13:16;15.80;99.90
7174;DHT22;3628;48.654;8.932;2022-07-10T06:15:41;15.80;99.90
7174;DHT22;3628;48.654;8.932;2022-07-10T06:18:07;15.80;99.90
7174;DHT22;3628;48.654;8.932;2022-07-10T06:20:32;15.90;99.90
7174;DHT22;3628;48.654;8.932;2022-07-10T06:22:58;15.80;99.90
7174;DHT22;3628;48.654;8.932;2022-07-10T06:25:24;15.80;99.90
7174;DHT22;3628;48.654;8.932;2022-07-10T06:27:50;15.80;99.90
7174;DHT22;3628;48.654;8.932;2022-07-10T06:30:15;15.80;99.90
7174;DHT22;3628;48.654;8.932;2022-07-10T06:32:41;15.80;99.90
7174;DHT22;3628;48.654;8.932;2022-07-10T06:35:07;15.90;99.90
7174;DHT22;3628;48.654;8.932;2022-07-10T06:37:34;15.90;99.90
7174;DHT22;3628;48.654;8.932;2022-07-10T06:39:59;15.90;99.90
7174;DHT22;3628;48.654;8.932;2022-07-10T06:42:25;16.00;99.90
7174;DHT22;3628;48.654;8.932;2022-07-10T06:44:51;16.00;99.90
7174;DHT22;3628;48.654;8.932;2022-07-10T06:47:18;16.20;99.90
7174;DHT22;3628;48.654;8.932;2022-07-10T06:50:07;16.10;99.90
7174;DHT22;3628;48.654;8.932;2022-07-10T06:52:34;16.30;99.90
7174;DHT22;3628;48.654;8.932;2022-07-10T06:55:01;16.10;99.90
7174;DHT22;3628;48.654;8.932;2022-07-10T06:57:27;16.10;99.90
7174;DHT22;3628;48.654;8.932;2022-07-10T06:59:53;16.00;99.90
7174;DHT22;3628;48.654;8.932;2022-07-10T07:02:19;16.00;99.90
7174;DHT22;3628;48.654;8.932;2022-07-10T07:04:44;15.90;99.90
7174;DHT22;3628;48.654;8.932;2022-07-10T07:07:14;16.10;99.90
7174;DHT22;3628;48.654;8.932;2022-07-10T07:09:41;16.10;99.90
7174;DHT22;3628;48.654;8.932;2022-07-10T07:12:07;16.30;99.90
7174;DHT22;3628;48.654;8.932;2022-07-10T07:14:33;16.40;99.90
7174;DHT22;3628;48.654;8.932;2022-07-10T07:16:59;16.40;99.90
7174;DHT22;3628;48.654;8.932;2022-07-10T07:19:39;16.40;99.90
7174;DHT22;3628;48.654;8.932;2022-07-10T07:22:24;16.20;99.90
7174;DHT22;3628;48.654;8.932;2022-07-10T07:25:10;16.20;99.90
7174;DHT22;3628;48.654;8.932;2022-07-10T07:27:36;16.30;99.90
7174;DHT22;3628;48.654;8.932;2022-07-10T07:30:07;16.50;99.90
7174;DHT22;3628;48.654;8.932;2022-07-10T07:32:33;16.60;99.90
7174;DHT22;3628;48.654;8.932;2022-07-10T07:35:00;16.50;99.90
7174;DHT22;3628;48.654;8.932;2022-07-10T07:40:02;16.70;99.90
7174;DHT22;3628;48.654;8.932;2022-07-10T07:42:27;16.90;99.90
7174;DHT22;3628;48.654;8.932;2022-07-10T07:44:53;17.00;99.90
7174;DHT22;3628;48.654;8.932;2022-07-10T07:47:18;17.00;99.90
7174;DHT22;3628;48.654;8.932;2022-07-10T07:49:44;17.00;99.90
7174;DHT22;3628;48.654;8.932;2022-07-10T07:52:10;17.20;99.90
7174;DHT22;3628;48.654;8.932;2022-07-10T07:54:36;17.50;99.90
7174;DHT22;3628;48.654;8.932;2022-07-10T07:57:01;17.40;99.90
7174;DHT22;3628;48.654;8.932;2022-07-10T07:59:27;17.50;99.90
7174;DHT22;3628;48.654;8.932;2022-07-10T08:01:52;17.80;99.90
7174;DHT22;3628;48.654;8.932;2022-07-10T08:04:18;17.70;99.90
7174;DHT22;3628;48.654;8.932;2022-07-10T08:06:43;17.80;99.90
7174;DHT22;3628;48.654;8.932;2022-07-10T08:09:09;17.50;99.90
7174;DHT22;3628;48.654;8.932;2022-07-10T08:11:35;17.70;99.90
7174;DHT22;3628;48.654;8.932;2022-07-10T08:14:00;17.80;99.90
7174;DHT22;3628;48.654;8.932;2022-07-10T08:16:26;18.00;99.90
7174;DHT22;3628;48.654;8.932;2022-07-10T08:18:51;18.20;99.90
7174;DHT22;3628;48.654;8.932;2022-07-10T08:21:17;18.20;99.90
7174;DHT22;3628;48.654;8.932;2022-07-10T08:23:43;18.20;99.90
7174;DHT22;3628;48.654;8.932;2022-07-10T08:26:08;18.00;99.90
7174;DHT22;3628;48.654;8.932;2022-07-10T08:28:34;18.20;99.90
7174;DHT22;3628;48.654;8.932;2022-07-10T08:30:59;18.40;99.90
7174;DHT22;3628;48.654;8.932;2022-07-10T08:33:26;18.50;99.90
7174;DHT22;3628;48.654;8.932;2022-07-10T08:35:52;18.40;99.90
7174;DHT22;3628;48.654;8.932;2022-07-10T08:38:18;18.40;99.90
7174;DHT22;3628;48.654;8.932;2022-07-10T08:40:44;18.60;99.90
7174;DHT22;3628;48.654;8.932;2022-07-10T08:43:11;18.90;99.90
7174;DHT22;3628;48.654;8.932;2022-07-10T08:45:36;19.10;99.90
7174;DHT22;3628;48.654;8.932;2022-07-10T08:48:03;18.90;99.90
7174;DHT22;3628;48.654;8.932;2022-07-10T08:50:33;18.90;99.90
7174;DHT22;3628;48.654;8.932;2022-07-10T08:53:04;19.00;99.90
7174;DHT22;3628;48.654;8.932;2022-07-10T08:55:31;19.10;99.90
7174;DHT22;3628;48.654;8.932;2022-07-10T08:57:58;19.20;99.90
7174;DHT22;3628;48.654;8.932;2022-07-10T09:00:24;19.20;99.90
7174;DHT22;3628;48.654;8.932;2022-07-10T09:02:50;19.40;99.90
7174;DHT22;3628;48.654;8.932;2022-07-10T09:05:18;19.20;99.90
7174;DHT22;3628;48.654;8.932;2022-07-10T09:07:44;19.50;99.90
7174;DHT22;3628;48.654;8.932;2022-07-10T09:10:11;19.10;99.90
7174;DHT22;3628;48.654;8.932;2022-07-10T09:12:58;19.20;99.90
7174;DHT22;3628;48.654;8.932;2022-07-10T09:15:29;19.40;99.90
7174;DHT22;3628;48.654;8.932;2022-07-10T09:17:59;19.00;99.90
7174;DHT22;3628;48.654;8.932;2022-07-10T09:20:31;19.00;99.90
7174;DHT22;3628;48.654;8.932;2022-07-10T09:23:16;19.30;99.90
7174;DHT22;3628;48.654;8.932;2022-07-10T09:25:43;19.50;99.90
7174;DHT22;3628;48.654;8.932;2022-07-10T09:28:09;19.60;99.90
7174;DHT22;3628;48.654;8.932;2022-07-10T09:30:37;20.20;99.90
7174;DHT22;3628;48.654;8.932;2022-07-10T09:33:24;20.10;99.90
7174;DHT22;3628;48.654;8.932;2022-07-10T09:41:34;19.90;99.90
7174;DHT22;3628;48.654;8.932;2022-07-10T09:44:04;19.90;99.90
7174;DHT22;3628;48.654;8.932;2022-07-10T09:46:34;20.10;99.90
7174;DHT22;3628;48.654;8.932;2022-07-10T09:49:06;20.30;99.90
7174;DHT22;3628;48.654;8.932;2022-07-10T09:51:40;20.50;99.90
7174;DHT22;3628;48.654;8.932;2022-07-10T09:54:07;20.40;99.90
7174;DHT22;3628;48.654;8.932;2022-07-10T09:56:42;20.00;99.90
7174;DHT22;3628;48.654;8.932;2022-07-10T09:59:15;19.90;99.90
7174;DHT22;3628;48.654;8.932;2022-07-10T10:01:47;20.10;99.90
7174;DHT22;3628;48.654;8.932;2022-07-10T10:04:17;19.90;99.90
7174;DHT22;3628;48.654;8.932;2022-07-10T10:06:52;20.00;99.90
7174;DHT22;3628;48.654;8.932;2022-07-10T10:09:26;19.70;99.90
7174;DHT22;3628;48.654;8.932;2022-07-10T10:11:59;19.50;99.90
7174;DHT22;3628;48.654;8.932;2022-07-10T10:14:27;19.60;99.90
7174;DHT22;3628;48.654;8.932;2022-07-10T10:16:56;19.60;99.90
7174;DHT22;3628;48.654;8.932;2022-07-10T10:19:23;19.70;99.90
7174;DHT22;3628;48.654;8.932;2022-07-10T10:22:08;20.00;99.90
7174;DHT22;3628;48.654;8.932;2022-07-10T10:24:34;20.10;99.90
7174;DHT22;3628;48.654;8.932;2022-07-10T10:27:04;20.30;99.90
7174;DHT22;3628;48.654;8.932;2022-07-10T10:29:31;20.50;99.90
7174;DHT22;3628;48.654;8.932;2022-07-10T10:31:57;20.60;99.90
7174;DHT22;3628;48.654;8.932;2022-07-10T10:34:41;20.60;99.90
7174;DHT22;3628;48.654;8.932;2022-07-10T10:39:54;21.60;99.90
7174;DHT22;3628;48.654;8.932;2022-07-10T10:47:58;20.10;99.90
7174;DHT22;3628;48.654;8.932;2022-07-10T10:50:56;20.40;99.90
7174;DHT22;3628;48.654;8.932;2022-07-10T10:53:24;20.80;99.20
7174;DHT22;3628;48.654;8.932;2022-07-10T10:58:37;21.80;96.90
7174;DHT22;3628;48.654;8.932;2022-07-10T11:01:27;21.90;96.70
7174;DHT22;3628;48.654;8.932;2022-07-10T11:06:51;20.30;98.10
7174;DHT22;3628;48.654;8.932;2022-07-10T11:09:32;20.20;98.40
7174;DHT22;3628;48.654;8.932;2022-07-10T11:12:08;20.30;98.80
7174;DHT22;3628;48.654;8.932;2022-07-10T11:14:46;20.90;98.60
7174;DHT22;3628;48.654;8.932;2022-07-10T11:17:14;21.10;97.60
7174;DHT22;3628;48.654;8.932;2022-07-10T11:19:40;21.20;97.10
7174;DHT22;3628;48.654;8.932;2022-07-10T11:25:19;21.10;95.50
7174;DHT22;3628;48.654;8.932;2022-07-10T11:28:05;21.10;94.30
7174;DHT22;3628;48.654;8.932;2022-07-10T11:30:45;21.10;94.10
7174;DHT22;3628;48.654;8.932;2022-07-10T11:33:11;21.20;92.80
7174;DHT22;3628;48.654;8.932;2022-07-10T11:35:38;21.50;93.80
7174;DHT22;3628;48.654;8.932;2022-07-10T11:38:05;21.90;94.20
7174;DHT22;3628;48.654;8.932;2022-07-10T11:40:31;21.30;92.80
7174;DHT22;3628;48.654;8.932;2022-07-10T11:43:00;21.00;93.40
7174;DHT22;3628;48.654;8.932;2022-07-10T11:45:31;21.10;93.80
7174;DHT22;3628;48.654;8.932;2022-07-10T11:47:58;21.20;92.40
7174;DHT22;3628;48.654;8.932;2022-07-10T11:50:24;21.40;92.30
7174;DHT22;3628;48.654;8.932;2022-07-10T11:52:52;21.70;91.30
7174;DHT22;3628;48.654;8.932;2022-07-10T11:55:22;21.80;90.20
7174;DHT22;3628;48.654;8.932;2022-07-10T11:57:48;22.00;90.40
7174;DHT22;3628;48.654;8.932;2022-07-10T12:00:27;21.80;90.60
7174;DHT22;3628;48.654;8.932;2022-07-10T12:02:54;21.60;91.30
7174;DHT22;3628;48.654;8.932;2022-07-10T12:05:36;21.50;90.40
7174;DHT22;3628;48.654;8.932;2022-07-10T12:08:03;21.30;90.20
7174;DHT22;3628;48.654;8.932;2022-07-10T12:10:31;21.20;90.20
7174;DHT22;3628;48.654;8.932;2022-07-10T12:13:10;21.20;89.50
7174;DHT22;3628;48.654;8.932;2022-07-10T12:15:42;21.40;89.50
7174;DHT22;3628;48.654;8.932;2022-07-10T12:18:16;21.40;86.80
7174;DHT22;3628;48.654;8.932;2022-07-10T12:20:42;21.50;87.30
7174;DHT22;3628;48.654;8.932;2022-07-10T12:23:11;21.80;84.50
7174;DHT22;3628;48.654;8.932;2022-07-10T12:25:42;21.80;84.40
7174;DHT22;3628;48.654;8.932;2022-07-10T12:28:08;21.70;86.30
7174;DHT22;3628;48.654;8.932;2022-07-10T12:30:41;21.70;87.00
7174;DHT22;3628;48.654;8.932;2022-07-10T12:33:14;21.60;84.40
7174;DHT22;3628;48.654;8.932;2022-07-10T12:35:56;21.80;84.60
7174;DHT22;3628;48.654;8.932;2022-07-10T12:38:26;21.70;81.80
7174;DHT22;3628;48.654;8.932;2022-07-10T12:43:32;21.80;80.10
7174;DHT22;3628;48.654;8.932;2022-07-10T12:48:41;22.00;78.50
7174;DHT22;3628;48.654;8.932;2022-07-10T12:51:25;22.00;77.30
7174;DHT22;3628;48.654;8.932;2022-07-10T12:53:52;22.00;77.80
7174;DHT22;3628;48.654;8.932;2022-07-10T12:56:28;21.80;76.20
7174;DHT22;3628;48.654;8.932;2022-07-10T12:58:54;21.60;75.90
7174;DHT22;3628;48.654;8.932;2022-07-10T13:01:20;21.60;77.00
7174;DHT22;3628;48.654;8.932;2022-07-10T13:03:45;21.70;77.20
7174;DHT22;3628;48.654;8.932;2022-07-10T13:06:28;21.90;77.20
7174;DHT22;3628;48.654;8.932;2022-07-10T13:08:54;22.00;75.60
7174;DHT22;3628;48.654;8.932;2022-07-10T13:11:19;21.90;75.60
7174;DHT22;3628;48.654;8.932;2022-07-10T13:13:45;21.90;75.60
7174;DHT22;3628;48.654;8.932;2022-07-10T13:16:11;21.60;75.10
7174;DHT22;3628;48.654;8.932;2022-07-10T13:18:36;21.70;75.00
7174;DHT22;3628;48.654;8.932;2022-07-10T13:21:02;21.60;74.50
7174;DHT22;3628;48.654;8.932;2022-07-10T13:23:29;21.70;74.30
7174;DHT22;3628;48.654;8.932;2022-07-10T13:25:56;21.70;74.30
7174;DHT22;3628;48.654;8.932;2022-07-10T13:28:22;21.80;74.60
7174;DHT22;3628;48.654;8.932;2022-07-10T13:30:48;21.80;72.60
7174;DHT22;3628;48.654;8.932;2022-07-10T13:33:13;22.10;73.60
7174;DHT22;3628;48.654;8.932;2022-07-10T13:35:39;21.90;73.30
7174;DHT22;3628;48.654;8.932;2022-07-10T13:38:05;21.60;73.40
7174;DHT22;3628;48.654;8.932;2022-07-10T13:40:33;21.70;73.30
7174;DHT22;3628;48.654;8.932;2022-07-10T13:42:59;21.70;73.90
7174;DHT22;3628;48.654;8.932;2022-07-10T13:45:25;21.80;72.90
7174;DHT22;3628;48.654;8.932;2022-07-10T13:47:55;21.60;71.90
7174;DHT22;3628;48.654;8.932;2022-07-10T13:50:22;21.60;72.80
7174;DHT22;3628;48.654;8.932;2022-07-10T13:52:48;21.70;72.30
7174;DHT22;3628;48.654;8.932;2022-07-10T13:55:14;21.70;72.90
7174;DHT22;3628;48.654;8.932;2022-07-10T13:57:40;22.00;72.60
7174;DHT22;3628;48.654;8.932;2022-07-10T14:00:06;21.90;71.80
7174;DHT22;3628;48.654;8.932;2022-07-10T14:02:32;21.90;72.40
7174;DHT22;3628;48.654;8.932;2022-07-10T14:04:58;22.00;71.50
7174;DHT22;3628;48.654;8.932;2022-07-10T14:07:24;22.00;71.20
7174;DHT22;3628;48.654;8.932;2022-07-10T14:09:49;22.20;71.10
7174;DHT22;3628;48.654;8.932;2022-07-10T14:12:15;22.50;71.20
7174;DHT22;3628;48.654;8.932;2022-07-10T14:14:41;22.40;70.80
7174;DHT22;3628;48.654;8.932;2022-07-10T14:17:06;22.60;70.40
7174;DHT22;3628;48.654;8.932;2022-07-10T14:19:32;22.50;70.50
7174;DHT22;3628;48.654;8.932;2022-07-10T14:21:58;22.40;72.20
7174;DHT22;3628;48.654;8.932;2022-07-10T14:24:24;22.40;70.80
7174;DHT22;3628;48.654;8.932;2022-07-10T14:26:50;22.70;70.30
7174;DHT22;3628;48.654;8.932;2022-07-10T14:29:17;22.60;69.20
7174;DHT22;3628;48.654;8.932;2022-07-10T14:31:43;22.30;70.00
7174;DHT22;3628;48.654;8.932;2022-07-10T14:34:13;22.30;70.20
7174;DHT22;3628;48.654;8.932;2022-07-10T14:36:38;22.30;71.30
7174;DHT22;3628;48.654;8.932;2022-07-10T14:39:04;22.60;71.20
7174;DHT22;3628;48.654;8.932;2022-07-10T14:41:29;22.50;70.10
7174;DHT22;3628;48.654;8.932;2022-07-10T14:43:55;22.80;70.30
7174;DHT22;3628;48.654;8.932;2022-07-10T14:46:21;22.90;69.00
7174;DHT22;3628;48.654;8.932;2022-07-10T14:48:47;22.70;69.60
7174;DHT22;3628;48.654;8.932;2022-07-10T14:51:13;22.60;69.70
7174;DHT22;3628;48.654;8.932;2022-07-10T14:53:39;22.40;69.00
7174;DHT22;3628;48.654;8.932;2022-07-10T14:56:07;22.10;69.40
7174;DHT22;3628;48.654;8.932;2022-07-10T14:58:33;21.90;69.80
7174;DHT22;3628;48.654;8.932;2022-07-10T15:00:58;22.10;70.60
7174;DHT22;3628;48.654;8.932;2022-07-10T15:03:25;21.70;70.30
7174;DHT22;3628;48.654;8.932;2022-07-10T15:05:51;21.90;71.40
7174;DHT22;3628;48.654;8.932;2022-07-10T15:08:21;22.10;70.90
7174;DHT22;3628;48.654;8.932;2022-07-10T15:10:46;22.10;70.20
7174;DHT22;3628;48.654;8.932;2022-07-10T15:13:13;22.30;69.70
7174;DHT22;3628;48.654;8.932;2022-07-10T15:15:39;22.10;68.20
7174;DHT22;3628;48.654;8.932;2022-07-10T15:18:04;22.10;69.10
7174;DHT22;3628;48.654;8.932;2022-07-10T15:20:30;22.10;68.90
7174;DHT22;3628;48.654;8.932;2022-07-10T15:22:56;22.30;68.50
7174;DHT22;3628;48.654;8.932;2022-07-10T15:25:21;22.40;68.40
7174;DHT22;3628;48.654;8.932;2022-07-10T15:27:47;22.40;68.20
7174;DHT22;3628;48.654;8.932;2022-07-10T15:30:13;22.80;68.40
7174;DHT22;3628;48.654;8.932;2022-07-10T15:32:39;22.80;67.60
7174;DHT22;3628;48.654;8.932;2022-07-10T15:35:05;22.80;67.20
7174;DHT22;3628;48.654;8.932;2022-07-10T15:37:32;22.60;68.10
7174;DHT22;3628;48.654;8.932;2022-07-10T15:39:57;22.80;68.70
7174;DHT22;3628;48.654;8.932;2022-07-10T15:42:23;22.90;68.50
7174;DHT22;3628;48.654;8.932;2022-07-10T15:44:49;23.00;67.60
7174;DHT22;3628;48.654;8.932;2022-07-10T15:47:14;23.20;67.60
7174;DHT22;3628;48.654;8.932;2022-07-10T15:49:40;23.10;67.60
7174;DHT22;3628;48.654;8.932;2022-07-10T15:52:06;23.20;67.00
7174;DHT22;3628;48.654;8.932;2022-07-10T15:54:32;23.20;67.20
7174;DHT22;3628;48.654;8.932;2022-07-10T15:56:58;22.90;65.80
7174;DHT22;3628;48.654;8.932;2022-07-10T15:59:24;22.90;67.20
7174;DHT22;3628;48.654;8.932;2022-07-10T16:01:51;22.90;66.80
7174;DHT22;3628;48.654;8.932;2022-07-10T16:04:17;23.00;67.20
7174;DHT22;3628;48.654;8.932;2022-07-10T16:06:43;23.20;67.60
7174;DHT22;3628;48.654;8.932;2022-07-10T16:09:08;23.40;66.90
7174;DHT22;3628;48.654;8.932;2022-07-10T16:11:34;23.50;65.40
7174;DHT22;3628;48.654;8.932;2022-07-10T16:13:59;22.80;66.10
7174;DHT22;3628;48.654;8.932;2022-07-10T16:16:25;22.90;66.80
7174;DHT22;3628;48.654;8.932;2022-07-10T16:18:51;22.60;66.20
7174;DHT22;3628;48.654;8.932;2022-07-10T16:21:19;22.60;67.50
7174;DHT22;3628;48.654;8.932;2022-07-10T16:23:44;22.80;66.80
7174;DHT22;3628;48.654;8.932;2022-07-10T16:26:11;23.20;66.40
7174;DHT22;3628;48.654;8.932;2022-07-10T16:28:37;23.30;66.00
7174;DHT22;3628;48.654;8.932;2022-07-10T16:31:03;23.40;66.40
7174;DHT22;3628;48.654;8.932;2022-07-10T16:33:29;23.80;65.90